Time;durP1;ratioP1;P1;durP2;ratioP2;P2;SDS_P1;SDS_P2;PMS_P1;PMS_P2;Temp;Humidity;BMP_temperature;BMP_pressure;BME280_temperature;BME280_humidity;BME280_pressure;Samples;Min_cycle;Max_cycle;Signal;HPM_P1;HPM_P2
2021/10/02 00:38:09;;;;;;;17.10;12.90;;;;;;;6.44;79.11;99980.70;468035;1190;140669;-62
2021/10/02 00:48:17;;;;;;;16.60;13.90;;;;;;;6.49;79.60;99980.15;477644;1190;141020;-62
2021/10/02 00:58:23;;;;;;;22.60;17.40;;;;;;;6.80;79.75;99968.95;477827;1190;145980;-62
2021/10/02 01:08:43;;;;;;;21.90;17.10;;;;;;;7.00;79.90;99963.95;475887;1191;141746;-62
2021/10/02 01:18:55;;;;;;;23.70;18.10;;;;;;;7.10;79.93;99956.91;469171;1191;142050;-61
2021/10/02 01:29:03;;;;;;;27.10;20.00;;;;;;;7.17;80.07;99948.27;477717;1191;142782;-64
2021/10/02 01:49:39;;;;;;;29.30;18.70;;;;;;;7.21;80.32;99931.89;468906;1190;141398;-62
2021/10/02 01:59:46;;;;;;;30.70;19.70;;;;;;;7.17;80.47;99923.70;471792;1191;143174;-62
2021/10/02 02:09:55;;;;;;;29.70;20.30;;;;;;;7.17;80.78;99918.79;472616;1191;143432;-63
2021/10/02 02:20:03;;;;;;;29.70;18.60;;;;;;;7.17;80.94;99900.55;461332;1192;141049;-62
2021/10/02 02:30:11;;;;;;;30.50;21.30;;;;;;;7.22;81.14;99890.75;473255;1192;142151;-62
2021/10/02 02:40:18;;;;;;;31.80;22.90;;;;;;;7.31;81.14;99881.13;476973;1192;141497;-63
2021/10/02 02:50:27;;;;;;;33.70;23.50;;;;;;;7.42;81.24;99873.45;476542;1191;142408;-63
2021/10/02 03:00:41;;;;;;;25.20;18.80;;;;;;;7.54;81.26;99864.05;471177;1191;141728;-62
2021/10/02 03:10:53;;;;;;;29.00;21.10;;;;;;;7.63;81.27;99846.88;468909;1192;144075;-61
2021/10/02 03:21:00;;;;;;;29.80;20.10;;;;;;;7.68;81.28;99835.84;467738;1191;140978;-63
2021/10/02 03:31:07;;;;;;;24.40;19.20;;;;;;;7.72;81.40;99833.92;477177;1192;141705;-62
2021/10/02 03:41:13;;;;;;;24.40;19.90;;;;;;;7.77;81.39;99821.65;476216;1192;141700;-63
2021/10/02 03:51:18;;;;;;;21.40;17.20;;;;;;;7.79;81.46;99817.54;471107;1192;142035;-62
2021/10/02 04:01:24;;;;;;;22.80;18.70;;;;;;;7.73;81.36;99813.48;460356;1192;141939;-62
2021/10/02 04:11:32;;;;;;;22.40;17.60;;;;;;;7.54;81.45;99818.20;459495;1192;142822;-62
2021/10/02 04:21:38;;;;;;;22.20;19.30;;;;;;;7.41;81.81;99818.63;467658;1192;143735;-62
2021/10/02 04:31:44;;;;;;;23.60;18.70;;;;;;;7.33;82.06;99812.75;464046;1192;141936;-62
2021/10/02 04:41:49;;;;;;;25.20;20.10;;;;;;;7.26;82.37;99813.61;459739;1192;141457;-62
2021/10/02 04:51:55;;;;;;;27.20;21.30;;;;;;;7.30;82.73;99812.73;460470;1192;142002;-65
2021/10/02 05:02:01;;;;;;;24.50;19.30;;;;;;;7.51;82.97;99814.16;470630;1191;141962;-63
2021/10/02 05:12:08;;;;;;;24.60;19.80;;;;;;;7.76;82.96;99804.30;462817;1191;141640;-61
2021/10/02 05:22:14;;;;;;;26.40;18.10;;;;;;;7.96;82.78;99802.27;477633;1186;142256;-64
2021/10/02 05:32:20;;;;;;;23.00;18.80;;;;;;;8.21;82.64;99798.20;471515;1190;141321;-64
2021/10/02 05:42:26;;;;;;;22.20;18.20;;;;;;;8.42;82.21;99801.52;477505;1191;141745;-64
2021/10/02 05:52:31;;;;;;;20.90;16.80;;;;;;;8.84;81.98;99806.36;467726;1190;141285;-62
2021/10/02 06:02:37;;;;;;;18.60;15.00;;;;;;;9.65;81.23;99806.31;466350;1189;194720;-64
2021/10/02 06:12:43;;;;;;;15.10;13.40;;;;;;;10.96;79.09;99801.08;468354;1190;141402;-63
2021/10/02 06:22:49;;;;;;;15.80;12.90;;;;;;;12.47;77.50;99797.24;477882;1190;141541;-63
2021/10/02 06:32:55;;;;;;;13.50;11.30;;;;;;;16.67;72.04;99788.14;471291;1190;142402;-63
2021/10/02 06:43:01;;;;;;;13.20;11.80;;;;;;;19.19;65.51;99786.58;463487;1190;142494;-62
2021/10/02 06:53:07;;;;;;;11.70;10.30;;;;;;;20.36;61.49;99786.98;461365;1190;141771;-63
2021/10/02 07:03:14;;;;;;;11.50;10.40;;;;;;;19.99;58.86;99788.45;467630;1190;144019;-64
2021/10/02 07:13:20;;;;;;;11.60;10.50;;;;;;;22.47;56.36;99785.31;476077;1191;142478;-62
2021/10/02 07:23:29;;;;;;;10.30;9.30;;;;;;;25.62;52.33;99774.57;475692;1191;141343;-65
2021/10/02 07:33:35;;;;;;;9.20;8.30;;;;;;;28.69;47.03;99771.87;470278;1190;140849;-67
2021/10/02 07:43:42;;;;;;;8.00;7.30;;;;;;;31.09;42.86;99770.17;464616;1190;140415;-64
2021/10/02 07:53:51;;;;;;;7.60;7.00;;;;;;;32.69;38.87;99763.14;477097;1190;140712;-65
2021/10/02 08:03:58;;;;;;;6.60;6.00;;;;;;;33.63;35.75;99758.66;475763;1190;141306;-65
2021/10/02 08:14:20;;;;;;;7.70;7.00;;;;;;;34.80;33.30;99756.80;476690;1191;141793;-63
2021/10/02 08:24:31;;;;;;;6.40;6.00;;;;;;;35.58;31.41;99755.73;477607;1189;140328;-66
2021/10/02 08:34:36;;;;;;;7.20;6.50;;;;;;;36.31;29.75;99750.97;477779;1190;141437;-68
2021/10/02 08:44:43;;;;;;;7.00;6.20;;;;;;;35.43;28.72;99749.39;477051;1190;141628;-64
2021/10/02 08:54:52;;;;;;;6.70;6.10;;;;;;;34.77;28.34;99734.70;472860;1190;141718;-63
2021/10/02 09:04:58;;;;;;;8.40;6.60;;;;;;;29.73;31.05;99716.00;468839;1190;191605;-63
2021/10/02 09:15:04;;;;;;;9.00;7.90;;;;;;;25.74;34.62;99706.67;464103;1190;141493;-66
2021/10/02 09:25:12;;;;;;;7.90;7.30;;;;;;;23.55;37.53;99711.02;459155;1190;10001571;-63
2021/10/02 09:35:21;;;;;;;10.00;9.00;;;;;;;22.45;39.69;99712.86;474845;1190;141776;-64
2021/10/02 09:45:29;;;;;;;9.10;8.20;;;;;;;21.59;41.10;99703.80;477874;1190;144654;-63
2021/10/02 09:55:37;;;;;;;12.40;9.30;;;;;;;20.99;42.49;99701.33;468072;1190;141472;-64
2021/10/02 10:05:43;;;;;;;;;;;;;;;20.30;43.90;99696.58;475518;1190;141736;-73
2021/10/02 10:15:50;;;;;;;12.40;9.40;;;;;;;20.17;45.05;99690.78;463804;1192;127958;-67
2021/10/02 10:25:59;;;;;;;9.40;8.50;;;;;;;20.13;45.55;99681.42;472526;1190;143023;-67
2021/10/02 10:36:05;;;;;;;13.90;9.40;;;;;;;20.12;45.98;99678.86;470531;1190;141070;-67
2021/10/02 10:46:13;;;;;;;9.30;8.30;;;;;;;20.16;46.31;99671.12;469592;1192;142698;-67
2021/10/02 10:56:38;;;;;;;10.60;7.90;;;;;;;19.98;46.53;99664.47;466151;1191;141054;-65
2021/10/02 11:07:01;;;;;;;13.30;8.80;;;;;;;19.59;47.51;99652.84;465055;1190;145541;-61
2021/10/02 11:17:07;;;;;;;10.00;8.90;;;;;;;19.41;47.81;99648.13;466179;1190;142180;-65
2021/10/02 11:27:23;;;;;;;11.70;10.10;;;;;;;19.57;48.10;99640.90;468182;1190;141328;-62
2021/10/02 11:37:43;;;;;;;8.80;8.00;;;;;;;19.64;48.04;99642.07;465207;1191;142331;-60
2021/10/02 11:47:50;;;;;;;9.70;8.80;;;;;;;20.22;47.58;99646.65;460227;1177;142177;-66
2021/10/02 11:58:12;;;;;;;10.30;9.00;;;;;;;20.03;47.27;99646.34;468636;1192;141512;-67
2021/10/02 12:08:19;;;;;;;10.30;8.90;;;;;;;20.15;47.42;99631.23;474723;1190;142782;-69
2021/10/02 12:18:26;;;;;;;12.40;9.10;;;;;;;20.37;47.15;99628.81;466427;1192;142492;-65
2021/10/02 12:28:35;;;;;;;12.90;8.90;;;;;;;20.66;47.16;99625.06;473796;1191;140736;-63
2021/10/02 12:38:43;;;;;;;12.50;9.20;;;;;;;20.76;46.72;99619.79;466240;1192;142103;-66
2021/10/02 12:48:50;;;;;;;17.50;9.20;;;;;;;20.27;46.76;99609.29;477732;1190;141728;-65
2021/10/02 12:58:56;;;;;;;10.70;8.20;;;;;;;19.79;47.12;99595.72;472514;1191;142457;-63
2021/10/02 13:09:02;;;;;;;9.90;8.50;;;;;;;19.37;47.68;99590.14;461591;1192;140266;-63
2021/10/02 13:19:08;;;;;;;11.30;8.70;;;;;;;19.54;47.70;99591.81;461560;1192;141105;-63
2021/10/02 13:29:26;;;;;;;12.20;8.40;;;;;;;19.69;47.78;99586.36;464337;1190;141635;-65
2021/10/02 13:39:31;;;;;;;9.90;7.80;;;;;;;19.70;47.43;99593.40;463038;1190;145040;-66
2021/10/02 13:49:37;;;;;;;17.60;10.00;;;;;;;19.65;47.06;99600.09;463693;1190;142432;-66
2021/10/02 13:59:43;;;;;;;9.30;8.50;;;;;;;19.38;47.36;99600.70;477042;1190;141944;-66
2021/10/02 14:09:49;;;;;;;9.40;8.20;;;;;;;19.22;47.61;99603.99;477999;1189;141515;-66
2021/10/02 14:19:55;;;;;;;12.80;8.10;;;;;;;19.08;47.77;99607.58;467057;1190;140982;-66
2021/10/02 14:30:00;;;;;;;9.40;8.50;;;;;;;18.88;47.94;99621.93;460984;1192;141160;-67
2021/10/02 14:40:11;;;;;;;12.40;8.60;;;;;;;18.71;47.94;99635.95;469960;1190;140199;-64
2021/10/02 14:50:17;;;;;;;11.60;9.40;;;;;;;18.49;48.18;99629.75;474910;1190;182507;-65
2021/10/02 15:00:23;;;;;;;11.00;7.90;;;;;;;18.28;48.71;99626.29;473842;1190;141244;-64
2021/10/02 15:10:30;;;;;;;8.80;7.70;;;;;;;18.06;49.15;99611.33;474098;1190;140513;-64
2021/10/02 15:20:37;;;;;;;14.60;9.50;;;;;;;17.81;49.52;99607.11;470750;1190;140471;-66
2021/10/02 15:30:43;;;;;;;16.80;12.60;;;;;;;17.52;50.40;99607.48;477882;1190;202405;-66
2021/10/02 15:40:50;;;;;;;13.20;11.20;;;;;;;17.19;51.05;99604.83;477021;1190;141303;-66
2021/10/02 15:50:56;;;;;;;15.10;10.80;;;;;;;16.79;51.85;99604.48;472049;1190;140972;-68
2021/10/02 16:01:02;;;;;;;17.10;11.50;;;;;;;16.39;52.76;99608.21;464982;1190;141389;-66
2021/10/02 16:11:08;;;;;;;18.30;12.60;;;;;;;15.95;53.69;99616.05;477264;1190;143257;-65
2021/10/02 16:21:14;;;;;;;18.70;12.10;;;;;;;15.49;54.75;99628.15;474698;1190;200507;-65
2021/10/02 16:31:20;;;;;;;14.80;12.40;;;;;;;15.10;55.70;99642.10;471277;1189;141718;-66
2021/10/02 16:41:28;;;;;;;17.90;13.40;;;;;;;14.72;56.61;99645.56;465811;1190;142595;-65
2021/10/02 16:51:34;;;;;;;16.40;14.50;;;;;;;14.34;57.37;99656.77;465124;1190;141964;-64
2021/10/02 17:01:40;;;;;;;16.10;13.10;;;;;;;14.03;58.04;99655.14;467957;1190;141542;-65
2021/10/02 17:11:46;;;;;;;16.90;13.00;;;;;;;13.72;58.64;99655.91;466902;1190;141506;-65
2021/10/02 17:21:51;;;;;;;24.00;16.50;;;;;;;13.46;59.26;99666.98;475437;1192;141698;-65
2021/10/02 17:31:57;;;;;;;19.40;16.60;;;;;;;13.37;59.78;99658.63;467400;1191;142726;-64
2021/10/02 17:42:03;;;;;;;21.70;13.80;;;;;;;13.35;60.11;99670.77;471146;1191;142049;-67
2021/10/02 17:52:10;;;;;;;20.80;16.30;;;;;;;13.31;60.54;99674.59;453730;1190;10002705;-59
2021/10/02 18:02:16;;;;;;;20.50;16.20;;;;;;;13.29;61.04;99674.20;475407;1189;144906;-59
2021/10/02 18:12:22;;;;;;;22.90;15.70;;;;;;;13.21;61.35;99686.20;477671;1190;142415;-59
2021/10/02 18:22:29;;;;;;;23.20;16.40;;;;;;;12.98;61.74;99684.51;467239;1190;147165;-58
2021/10/02 18:32:35;;;;;;;21.00;16.80;;;;;;;12.67;62.37;99682.55;466858;1191;142622;-57
2021/10/02 18:42:43;;;;;;;22.70;16.90;;;;;;;12.35;63.06;99685.98;460761;1190;142115;-58
2021/10/02 18:52:49;;;;;;;20.60;15.10;;;;;;;12.09;63.68;99686.48;475402;1190;143371;-58
2021/10/02 19:02:55;;;;;;;22.80;17.80;;;;;;;11.89;64.25;99686.29;469595;1189;142783;-58
2021/10/02 19:13:04;;;;;;;20.60;14.50;;;;;;;11.73;64.67;99682.05;465598;1191;142965;-58
2021/10/02 19:23:10;;;;;;;19.00;16.30;;;;;;;11.61;65.02;99682.15;471419;1191;162915;-58
2021/10/02 19:33:16;;;;;;;17.70;14.10;;;;;;;11.50;65.07;99676.23;467107;1191;143403;-58
2021/10/02 19:43:22;;;;;;;19.10;13.90;;;;;;;11.36;65.32;99679.63;477278;1191;146032;-59
2021/10/02 19:53:28;;;;;;;16.10;13.30;;;;;;;11.28;65.54;99672.77;464965;1191;144276;-57
2021/10/02 20:03:34;;;;;;;14.60;12.30;;;;;;;11.20;65.64;99675.04;461011;1190;147733;-55
2021/10/02 20:13:40;;;;;;;21.70;15.60;;;;;;;11.09;65.70;99672.41;464666;1190;142533;-57
2021/10/02 20:23:46;;;;;;;20.30;15.10;;;;;;;10.98;65.84;99659.13;465735;1190;142656;-57
2021/10/02 20:33:52;;;;;;;22.50;12.60;;;;;;;10.90;66.01;99652.06;466158;1190;142888;-59
2021/10/02 20:43:59;;;;;;;12.50;11.20;;;;;;;10.90;65.99;99639.99;464020;1191;146168;-59
2021/10/02 20:54:05;;;;;;;16.40;12.00;;;;;;;10.87;66.00;99641.61;471691;1191;142392;-59
2021/10/02 21:04:11;;;;;;;16.40;12.10;;;;;;;10.79;66.18;99639.63;469186;1190;143219;-58
2021/10/02 21:14:16;;;;;;;15.90;12.60;;;;;;;10.70;66.30;99633.23;470799;1190;142506;-58
2021/10/02 21:24:22;;;;;;;16.60;11.90;;;;;;;10.57;66.31;99632.27;464598;1190;143021;-60
2021/10/02 21:34:29;;;;;;;15.50;10.60;;;;;;;10.43;66.33;99631.39;475527;1190;141977;-59
2021/10/02 21:44:36;;;;;;;19.40;11.40;;;;;;;10.32;66.39;99635.16;463492;1190;142493;-59
2021/10/02 21:54:46;;;;;;;13.60;10.10;;;;;;;10.30;66.36;99636.70;462131;1192;143731;-59
2021/10/02 22:04:52;;;;;;;11.90;8.30;;;;;;;10.33;66.10;99639.34;461343;1192;142644;-58
2021/10/02 22:14:58;;;;;;;12.30;6.80;;;;;;;10.48;65.71;99644.73;460019;1192;141938;-60
2021/10/02 22:25:09;;;;;;;11.00;7.00;;;;;;;10.64;65.45;99651.61;460885;1191;143305;-60
2021/10/02 22:35:16;;;;;;;7.40;6.30;;;;;;;10.85;64.94;99648.05;460842;1191;142580;-60
2021/10/02 22:45:22;;;;;;;12.30;7.50;;;;;;;10.99;64.70;99648.70;462522;1191;141928;-62
2021/10/02 22:55:29;;;;;;;9.60;7.10;;;;;;;11.02;64.46;99650.06;466601;1191;197427;-62
2021/10/02 23:05:37;;;;;;;11.40;7.30;;;;;;;10.88;64.50;99651.34;463211;1190;141154;-61
2021/10/02 23:15:51;;;;;;;12.60;9.20;;;;;;;10.75;64.69;99652.50;462209;1190;142328;-60
2021/10/02 23:25:58;;;;;;;15.60;10.80;;;;;;;10.50;65.04;99657.91;462528;1176;142791;-62
2021/10/02 23:36:05;;;;;;;17.80;12.60;;;;;;;10.19;65.55;99673.03;467758;1190;142972;-62
2021/10/02 23:46:12;;;;;;;16.90;13.00;;;;;;;9.89;66.29;99680.64;477422;1191;142612;-62
2021/10/02 23:56:23;;;;;;;19.40;15.50;;;;;;;9.63;66.97;99685.83;467111;1190;142252;-63
